EJ676 VAPO-VECC
Flight info
| Callsign | EJ676 |
|---|---|
| Flight time | 2h 16m |
| Altitude | 37000 |
| Route | OPAKA2A OPAKA G450 JJS JJS2G |
| Aircraft | SU95/M-SDE3GILORVW/S |
Departure
| Time | 2026-05-04 11:33 |
|---|---|
| Airport | Pune International Airport (VAPO) |
Arrival
| Time | 2026-05-04 13:49 |
|---|---|
| Airport | Netaji Subhash Chandra Bose International Airport (VECC) |
| Time | Latitude | Longitude | Altitude | Speed | Heading |
|---|---|---|---|---|---|
| 2026-05-04 10:32 | 18.57992 | 73.90916 | 1922 ft | 0 kts | 188° |
| 2026-05-04 11:02 | 18.57996 | 73.90917 | 1920 ft | 0 kts | 192° |
| 2026-05-04 11:02 | 18.57999 | 73.90917 | 1920 ft | 0 kts | 193° |
| 2026-05-04 11:05 | 18.58063 | 73.90906 | 1923 ft | 1 kts | 114° |
| 2026-05-04 11:06 | 18.58064 | 73.90904 | 1923 ft | 0 kts | 105° |
| 2026-05-04 11:08 | 18.58020 | 73.91140 | 1924 ft | 6 kts | 98° |
| 2026-05-04 11:10 | 18.58103 | 73.91382 | 1925 ft | 7 kts | 93° |
| 2026-05-04 11:12 | 18.58018 | 73.92774 | 1932 ft | 0 kts | 96° |
| 2026-05-04 11:13 | 18.58018 | 73.92775 | 1932 ft | 1 kts | 96° |
| 2026-05-04 11:13 | 18.58007 | 73.92897 | 1932 ft | 15 kts | 94° |
| 2026-05-04 11:13 | 18.58004 | 73.92977 | 1932 ft | 1 kts | 88° |
| 2026-05-04 11:14 | 18.58011 | 73.92993 | 1932 ft | 0 kts | 45° |
| 2026-05-04 11:14 | 18.58012 | 73.92995 | 1932 ft | 0 kts | 33° |
| 2026-05-04 11:14 | 18.58016 | 73.92996 | 1932 ft | 1 kts | 11° |
| 2026-05-04 11:16 | 18.58057 | 73.93001 | 1932 ft | 0 kts | 3° |
| 2026-05-04 11:26 | 18.58080 | 73.93002 | 1932 ft | 6 kts | 2° |
| 2026-05-04 11:27 | 18.58167 | 73.92932 | 1933 ft | 0 kts | 269° |
| 2026-05-04 11:31 | 18.58300 | 73.90882 | 2362 ft | 159 kts | 272° |
| 2026-05-04 11:33 | 18.59232 | 73.81432 | 5659 ft | 236 kts | 296° |
| 2026-05-04 11:33 | 18.60392 | 73.80164 | 5854 ft | 259 kts | 332° |
| 2026-05-04 11:33 | 18.62217 | 73.79888 | 6539 ft | 275 kts | 7° |
| 2026-05-04 11:34 | 18.63957 | 73.80769 | 7384 ft | 287 kts | 39° |
| 2026-05-04 11:34 | 18.65088 | 73.82541 | 8166 ft | 298 kts | 65° |
| 2026-05-04 11:34 | 18.65739 | 73.84641 | 8760 ft | 315 kts | 72° |
| 2026-05-04 11:34 | 18.66317 | 73.86988 | 8930 ft | 343 kts | 74° |
| 2026-05-04 11:35 | 18.66903 | 73.89535 | 8954 ft | 373 kts | 75° |
| 2026-05-04 11:35 | 18.67618 | 73.92265 | 8948 ft | 398 kts | 66° |
| 2026-05-04 11:35 | 18.69018 | 73.94846 | 8944 ft | 408 kts | 51° |
| 2026-05-04 11:35 | 18.70769 | 73.97111 | 8941 ft | 386 kts | 46° |
| 2026-05-04 11:36 | 18.72505 | 73.99172 | 8941 ft | 364 kts | 45° |
| 2026-05-04 11:36 | 18.74144 | 74.01097 | 8945 ft | 344 kts | 46° |
| 2026-05-04 11:36 | 18.75673 | 74.02919 | 8945 ft | 327 kts | 46° |
| 2026-05-04 11:36 | 18.77139 | 74.04695 | 8942 ft | 310 kts | 46° |
| 2026-05-04 11:37 | 18.78510 | 74.06373 | 8941 ft | 294 kts | 46° |
| 2026-05-04 11:37 | 18.79840 | 74.08005 | 8946 ft | 296 kts | 46° |
| 2026-05-04 11:37 | 18.81185 | 74.09658 | 8939 ft | 297 kts | 47° |
| 2026-05-04 11:37 | 18.82527 | 74.11313 | 8940 ft | 295 kts | 47° |
| 2026-05-04 11:38 | 18.83869 | 74.12972 | 8941 ft | 297 kts | 47° |
| 2026-05-04 11:38 | 18.85205 | 74.14621 | 8939 ft | 297 kts | 47° |
| 2026-05-04 11:38 | 18.86545 | 74.16281 | 8941 ft | 297 kts | 47° |
| 2026-05-04 11:38 | 18.87737 | 74.17758 | 8939 ft | 298 kts | 46° |
| 2026-05-04 11:39 | 18.89083 | 74.19419 | 8926 ft | 297 kts | 46° |
| 2026-05-04 11:39 | 18.90441 | 74.21096 | 9086 ft | 299 kts | 47° |
| 2026-05-04 11:40 | 18.99260 | 74.32012 | 12893 ft | 351 kts | 48° |
| 2026-05-04 11:41 | 19.00852 | 74.33985 | 13628 ft | 356 kts | 48° |
| 2026-05-04 11:41 | 19.02469 | 74.35990 | 14323 ft | 360 kts | 48° |
| 2026-05-04 11:41 | 19.04101 | 74.38015 | 15037 ft | 363 kts | 48° |
| 2026-05-04 11:41 | 19.05748 | 74.40060 | 15718 ft | 367 kts | 48° |
| 2026-05-04 11:42 | 19.07392 | 74.42099 | 16403 ft | 371 kts | 47° |
| 2026-05-04 11:42 | 19.09095 | 74.44213 | 17084 ft | 375 kts | 47° |
| 2026-05-04 11:42 | 19.10774 | 74.46300 | 17759 ft | 379 kts | 47° |
| 2026-05-04 11:42 | 19.12488 | 74.48430 | 18374 ft | 383 kts | 47° |
| 2026-05-04 11:43 | 19.14227 | 74.50593 | 18921 ft | 388 kts | 47° |
| 2026-05-04 11:43 | 19.15990 | 74.52781 | 19478 ft | 392 kts | 47° |
| 2026-05-04 11:43 | 19.17767 | 74.54991 | 20023 ft | 396 kts | 47° |
| 2026-05-04 11:43 | 19.19568 | 74.57231 | 20564 ft | 400 kts | 47° |
| 2026-05-04 11:44 | 19.21377 | 74.59482 | 21125 ft | 404 kts | 48° |
| 2026-05-04 11:44 | 19.23208 | 74.61763 | 21659 ft | 408 kts | 48° |
| 2026-05-04 11:44 | 19.25049 | 74.64058 | 22203 ft | 412 kts | 48° |
| 2026-05-04 11:44 | 19.26921 | 74.66390 | 22733 ft | 416 kts | 48° |
| 2026-05-04 11:45 | 19.28798 | 74.68729 | 23261 ft | 420 kts | 48° |
| 2026-05-04 11:45 | 19.30672 | 74.71066 | 23712 ft | 423 kts | 48° |
| 2026-05-04 11:45 | 19.32584 | 74.73452 | 24157 ft | 426 kts | 48° |
| 2026-05-04 11:45 | 19.34504 | 74.75848 | 24585 ft | 429 kts | 48° |
| 2026-05-04 11:46 | 19.36444 | 74.78270 | 25006 ft | 432 kts | 48° |
| 2026-05-04 11:46 | 19.38396 | 74.80709 | 25416 ft | 435 kts | 48° |
| 2026-05-04 11:46 | 19.40363 | 74.83167 | 25809 ft | 438 kts | 48° |
| 2026-05-04 11:46 | 19.42343 | 74.85643 | 26192 ft | 442 kts | 48° |
| 2026-05-04 11:47 | 19.44338 | 74.88138 | 26580 ft | 444 kts | 48° |
| 2026-05-04 11:47 | 19.46340 | 74.90642 | 26948 ft | 448 kts | 48° |
| 2026-05-04 11:47 | 19.48368 | 74.93180 | 27304 ft | 451 kts | 47° |
| 2026-05-04 11:47 | 19.50376 | 74.95695 | 27665 ft | 454 kts | 47° |
| 2026-05-04 11:48 | 19.52425 | 74.98262 | 27999 ft | 457 kts | 47° |
| 2026-05-04 11:48 | 19.54480 | 75.00837 | 28326 ft | 460 kts | 47° |
| 2026-05-04 11:48 | 19.56555 | 75.03439 | 28653 ft | 463 kts | 47° |
| 2026-05-04 11:48 | 19.58642 | 75.06057 | 28976 ft | 466 kts | 47° |
| 2026-05-04 11:49 | 19.60742 | 75.08693 | 29270 ft | 469 kts | 47° |
| 2026-05-04 11:49 | 19.62862 | 75.11354 | 29598 ft | 471 kts | 47° |
| 2026-05-04 11:49 | 19.64979 | 75.14014 | 29889 ft | 474 kts | 47° |
| 2026-05-04 11:49 | 19.67115 | 75.16698 | 30170 ft | 477 kts | 47° |
| 2026-05-04 11:50 | 19.69260 | 75.19394 | 30459 ft | 479 kts | 47° |
| 2026-05-04 11:50 | 19.71387 | 75.22069 | 30746 ft | 481 kts | 47° |
| 2026-05-04 11:50 | 19.73557 | 75.24799 | 31044 ft | 483 kts | 47° |
| 2026-05-04 11:50 | 19.75729 | 75.27535 | 31316 ft | 485 kts | 47° |
| 2026-05-04 11:51 | 19.77912 | 75.30284 | 31591 ft | 487 kts | 47° |
| 2026-05-04 11:51 | 19.80103 | 75.33045 | 31859 ft | 489 kts | 47° |
| 2026-05-04 11:51 | 19.82296 | 75.35808 | 32133 ft | 491 kts | 47° |
| 2026-05-04 11:51 | 19.84416 | 75.38676 | 32361 ft | 495 kts | 53° |
| 2026-05-04 11:52 | 19.86245 | 75.41810 | 32647 ft | 498 kts | 60° |
| 2026-05-04 11:52 | 19.87732 | 75.45136 | 32958 ft | 500 kts | 66° |
| 2026-05-04 11:52 | 19.88978 | 75.48596 | 33270 ft | 500 kts | 67° |
| 2026-05-04 11:52 | 19.90220 | 75.52036 | 33603 ft | 499 kts | 67° |
| 2026-05-04 11:53 | 19.91451 | 75.55427 | 33878 ft | 499 kts | 67° |
| 2026-05-04 11:53 | 19.92714 | 75.58908 | 34160 ft | 498 kts | 67° |
| 2026-05-04 11:53 | 19.93942 | 75.62301 | 34424 ft | 497 kts | 67° |
| 2026-05-04 11:53 | 19.95182 | 75.65732 | 34676 ft | 497 kts | 67° |
| 2026-05-04 11:55 | 20.03799 | 75.89664 | 36474 ft | 493 kts | 67° |
| 2026-05-04 11:55 | 20.05020 | 75.93066 | 36724 ft | 492 kts | 67° |
| 2026-05-04 11:56 | 20.06244 | 75.96478 | 36787 ft | 491 kts | 67° |
| 2026-05-04 11:56 | 20.08659 | 76.03214 | 36789 ft | 491 kts | 67° |
| 2026-05-04 11:57 | 20.11102 | 76.10039 | 36787 ft | 491 kts | 67° |
| 2026-05-04 11:57 | 20.13515 | 76.16791 | 36786 ft | 491 kts | 67° |
| 2026-05-04 11:58 | 20.15943 | 76.23593 | 36782 ft | 492 kts | 67° |
| 2026-05-04 11:58 | 20.18370 | 76.30401 | 36780 ft | 492 kts | 67° |
| 2026-05-04 11:59 | 20.20800 | 76.37228 | 36785 ft | 492 kts | 67° |
| 2026-05-04 11:59 | 20.23220 | 76.44038 | 36781 ft | 492 kts | 68° |
| 2026-05-04 12:00 | 20.25627 | 76.50818 | 36776 ft | 492 kts | 68° |
| 2026-05-04 12:00 | 20.28043 | 76.57634 | 36772 ft | 492 kts | 68° |
| 2026-05-04 12:01 | 20.30463 | 76.64471 | 36766 ft | 493 kts | 68° |
| 2026-05-04 12:02 | 20.38673 | 76.88506 | 36747 ft | 494 kts | 71° |
| 2026-05-04 12:03 | 20.40435 | 76.94307 | 36759 ft | 495 kts | 71° |
| 2026-05-04 12:03 | 20.42900 | 77.02438 | 36757 ft | 495 kts | 71° |
| 2026-05-04 12:04 | 20.44657 | 77.08253 | 36748 ft | 495 kts | 71° |
| 2026-05-04 12:04 | 20.46770 | 77.15261 | 36750 ft | 495 kts | 71° |
| 2026-05-04 12:05 | 20.48878 | 77.22265 | 36753 ft | 495 kts | 71° |
| 2026-05-04 12:05 | 20.50985 | 77.29274 | 36741 ft | 496 kts | 71° |
| 2026-05-04 12:06 | 20.53087 | 77.36280 | 36740 ft | 496 kts | 71° |
| 2026-05-04 12:06 | 20.55196 | 77.43291 | 36743 ft | 495 kts | 70° |
| 2026-05-04 12:07 | 20.57458 | 77.50184 | 36743 ft | 495 kts | 69° |
| 2026-05-04 12:07 | 20.59763 | 77.57115 | 36734 ft | 495 kts | 69° |
| 2026-05-04 12:08 | 20.62041 | 77.64051 | 36725 ft | 495 kts | 70° |
| 2026-05-04 12:08 | 20.64308 | 77.70992 | 36727 ft | 495 kts | 70° |
| 2026-05-04 12:09 | 20.66569 | 77.77926 | 36731 ft | 495 kts | 70° |
| 2026-05-04 12:09 | 20.68831 | 77.84870 | 36727 ft | 495 kts | 70° |
| 2026-05-04 12:10 | 20.71112 | 77.91810 | 36717 ft | 495 kts | 70° |
| 2026-05-04 12:10 | 20.73392 | 77.98705 | 36727 ft | 495 kts | 70° |
| 2026-05-04 12:11 | 20.75677 | 78.05639 | 36720 ft | 495 kts | 70° |
| 2026-05-04 12:11 | 20.77957 | 78.12573 | 36727 ft | 495 kts | 70° |
| 2026-05-04 12:12 | 20.80241 | 78.19533 | 36716 ft | 495 kts | 70° |
| 2026-05-04 12:12 | 20.82516 | 78.26475 | 36718 ft | 495 kts | 70° |
| 2026-05-04 12:14 | 20.91590 | 78.54274 | 36730 ft | 496 kts | 70° |
| 2026-05-04 12:15 | 20.93857 | 78.61244 | 36728 ft | 496 kts | 70° |
| 2026-05-04 12:15 | 20.96122 | 78.68222 | 36732 ft | 496 kts | 70° |
| 2026-05-04 12:16 | 20.98382 | 78.75193 | 36731 ft | 496 kts | 70° |
| 2026-05-04 12:16 | 21.00627 | 78.82130 | 36720 ft | 497 kts | 70° |
| 2026-05-04 12:17 | 21.02889 | 78.89128 | 36721 ft | 497 kts | 70° |
| 2026-05-04 12:17 | 21.05132 | 78.96080 | 36716 ft | 497 kts | 70° |
| 2026-05-04 12:18 | 21.07386 | 79.03079 | 36725 ft | 497 kts | 70° |
| 2026-05-04 12:18 | 21.09549 | 79.10120 | 36723 ft | 497 kts | 73° |
| 2026-05-04 12:19 | 21.11474 | 79.17230 | 36727 ft | 497 kts | 73° |
| 2026-05-04 12:19 | 21.13402 | 79.24291 | 36724 ft | 497 kts | 73° |
| 2026-05-04 12:20 | 21.15365 | 79.31389 | 36729 ft | 497 kts | 73° |
| 2026-05-04 12:20 | 21.17329 | 79.38482 | 36726 ft | 497 kts | 73° |
| 2026-05-04 12:21 | 21.19292 | 79.45584 | 36734 ft | 496 kts | 73° |
| 2026-05-04 12:21 | 21.21246 | 79.52668 | 36733 ft | 496 kts | 73° |
| 2026-05-04 12:22 | 21.23190 | 79.59727 | 36737 ft | 496 kts | 73° |
| 2026-05-04 12:22 | 21.25151 | 79.66863 | 36733 ft | 496 kts | 73° |
| 2026-05-04 12:23 | 21.27084 | 79.73908 | 36735 ft | 496 kts | 73° |
| 2026-05-04 12:23 | 21.29026 | 79.81001 | 36734 ft | 495 kts | 73° |
| 2026-05-04 12:24 | 21.30960 | 79.88073 | 36738 ft | 495 kts | 73° |
| 2026-05-04 12:24 | 21.32887 | 79.95136 | 36737 ft | 495 kts | 73° |
| 2026-05-04 12:25 | 21.34819 | 80.02226 | 36745 ft | 495 kts | 73° |
| 2026-05-04 12:25 | 21.36752 | 80.09338 | 36751 ft | 496 kts | 73° |
| 2026-05-04 12:26 | 21.38680 | 80.16441 | 36752 ft | 496 kts | 74° |
| 2026-05-04 12:26 | 21.40608 | 80.23556 | 36743 ft | 496 kts | 74° |
| 2026-05-04 12:27 | 21.42518 | 80.30618 | 36755 ft | 495 kts | 74° |
| 2026-05-04 12:27 | 21.44439 | 80.37736 | 36747 ft | 495 kts | 74° |
| 2026-05-04 12:28 | 21.46355 | 80.44846 | 36764 ft | 495 kts | 74° |
| 2026-05-04 12:28 | 21.48263 | 80.51938 | 36760 ft | 495 kts | 74° |
| 2026-05-04 12:29 | 21.50167 | 80.59029 | 36761 ft | 495 kts | 74° |
| 2026-05-04 12:29 | 21.52041 | 80.66011 | 36760 ft | 495 kts | 74° |
| 2026-05-04 12:30 | 21.53946 | 80.73116 | 36766 ft | 495 kts | 74° |
| 2026-05-04 12:30 | 21.55850 | 80.80232 | 36770 ft | 495 kts | 74° |
| 2026-05-04 12:31 | 21.57746 | 80.87329 | 36762 ft | 495 kts | 74° |
| 2026-05-04 12:31 | 21.59644 | 80.94450 | 36760 ft | 495 kts | 74° |
| 2026-05-04 12:32 | 21.62367 | 81.04684 | 36764 ft | 495 kts | 74° |
| 2026-05-04 12:33 | 21.64262 | 81.11823 | 36752 ft | 495 kts | 74° |
| 2026-05-04 12:33 | 21.66147 | 81.18939 | 36757 ft | 495 kts | 74° |
| 2026-05-04 12:34 | 21.68032 | 81.26067 | 36755 ft | 496 kts | 74° |
| 2026-05-04 12:34 | 21.69913 | 81.33159 | 36754 ft | 496 kts | 74° |
| 2026-05-04 12:35 | 21.71879 | 81.40268 | 36747 ft | 496 kts | 73° |
| 2026-05-04 12:35 | 21.73855 | 81.47400 | 36754 ft | 496 kts | 74° |
| 2026-05-04 12:36 | 21.75805 | 81.54484 | 36751 ft | 497 kts | 74° |
| 2026-05-04 12:36 | 21.77762 | 81.61622 | 36755 ft | 497 kts | 74° |
| 2026-05-04 12:37 | 21.79635 | 81.68730 | 36757 ft | 497 kts | 76° |
| 2026-05-04 12:37 | 21.81363 | 81.75943 | 36758 ft | 497 kts | 76° |
| 2026-05-04 12:38 | 21.82962 | 81.82572 | 36761 ft | 497 kts | 76° |
| 2026-05-04 12:38 | 21.84719 | 81.89795 | 36763 ft | 497 kts | 76° |
| 2026-05-04 12:39 | 21.86457 | 81.96933 | 36767 ft | 497 kts | 76° |
| 2026-05-04 12:39 | 21.88204 | 82.04149 | 36768 ft | 497 kts | 76° |
| 2026-05-04 12:40 | 21.89931 | 82.11363 | 36763 ft | 497 kts | 76° |
| 2026-05-04 12:40 | 21.91655 | 82.18572 | 36764 ft | 497 kts | 76° |
| 2026-05-04 12:41 | 21.93378 | 82.25787 | 36768 ft | 497 kts | 76° |
| 2026-05-04 12:41 | 21.95100 | 82.33010 | 36766 ft | 497 kts | 76° |
| 2026-05-04 12:42 | 21.96816 | 82.40222 | 36762 ft | 497 kts | 76° |
| 2026-05-04 12:42 | 21.98532 | 82.47449 | 36765 ft | 497 kts | 76° |
| 2026-05-04 12:43 | 22.00231 | 82.54623 | 36765 ft | 496 kts | 76° |
| 2026-05-04 12:43 | 22.01938 | 82.61840 | 36765 ft | 496 kts | 76° |
| 2026-05-04 12:44 | 22.03628 | 82.69005 | 36764 ft | 496 kts | 76° |
| 2026-05-04 12:44 | 22.05328 | 82.76227 | 36781 ft | 496 kts | 76° |
| 2026-05-04 12:45 | 22.07029 | 82.83465 | 36785 ft | 496 kts | 76° |
| 2026-05-04 12:45 | 22.08721 | 82.90682 | 36778 ft | 496 kts | 76° |
| 2026-05-04 12:46 | 22.10409 | 82.97901 | 36783 ft | 496 kts | 76° |
| 2026-05-04 12:46 | 22.12091 | 83.05106 | 36788 ft | 496 kts | 76° |
| 2026-05-04 12:47 | 22.13777 | 83.12343 | 36791 ft | 496 kts | 76° |
| 2026-05-04 12:47 | 22.15443 | 83.19507 | 36796 ft | 497 kts | 77° |
| 2026-05-04 12:48 | 22.17135 | 83.26805 | 36813 ft | 508 kts | 77° |
| 2026-05-04 12:48 | 22.18866 | 83.34283 | 36810 ft | 515 kts | 77° |
| 2026-05-04 12:49 | 22.20305 | 83.40556 | 36812 ft | 514 kts | 77° |
| 2026-05-04 12:49 | 22.22004 | 83.47990 | 36823 ft | 514 kts | 77° |
| 2026-05-04 12:50 | 22.23709 | 83.55461 | 36809 ft | 514 kts | 77° |
| 2026-05-04 12:50 | 22.25418 | 83.62962 | 36824 ft | 514 kts | 76° |
| 2026-05-04 12:51 | 22.27124 | 83.70466 | 36819 ft | 514 kts | 76° |
| 2026-05-04 12:51 | 22.28815 | 83.77918 | 36829 ft | 514 kts | 76° |
| 2026-05-04 12:52 | 22.30510 | 83.85410 | 36832 ft | 514 kts | 76° |
| 2026-05-04 12:52 | 22.32205 | 83.92917 | 36824 ft | 514 kts | 76° |
| 2026-05-04 12:53 | 22.33933 | 84.00414 | 36824 ft | 514 kts | 76° |
| 2026-05-04 12:53 | 22.35681 | 84.07921 | 36827 ft | 515 kts | 76° |
| 2026-05-04 12:54 | 22.37405 | 84.15370 | 36827 ft | 514 kts | 76° |
| 2026-05-04 12:54 | 22.39144 | 84.22915 | 36823 ft | 513 kts | 76° |
| 2026-05-04 12:55 | 22.40863 | 84.30390 | 36833 ft | 513 kts | 76° |
| 2026-05-04 12:55 | 22.42582 | 84.37880 | 36830 ft | 513 kts | 76° |
| 2026-05-04 12:56 | 22.44287 | 84.45331 | 36840 ft | 512 kts | 76° |
| 2026-05-04 12:56 | 22.45994 | 84.52805 | 36828 ft | 512 kts | 76° |
| 2026-05-04 12:57 | 22.47697 | 84.60276 | 36820 ft | 513 kts | 76° |
| 2026-05-04 12:57 | 22.49407 | 84.67796 | 36817 ft | 514 kts | 76° |
| 2026-05-04 12:58 | 22.51103 | 84.75272 | 36817 ft | 515 kts | 76° |
| 2026-05-04 12:58 | 22.52804 | 84.82784 | 36832 ft | 516 kts | 76° |
| 2026-05-04 12:59 | 22.54462 | 84.90343 | 36837 ft | 517 kts | 77° |
| 2026-05-04 12:59 | 22.56090 | 84.97954 | 36852 ft | 518 kts | 77° |
| 2026-05-04 13:00 | 22.57722 | 85.05565 | 36856 ft | 519 kts | 77° |
| 2026-05-04 13:00 | 22.59342 | 85.13113 | 36860 ft | 519 kts | 77° |
| 2026-05-04 13:01 | 22.60975 | 85.20740 | 36863 ft | 520 kts | 77° |
| 2026-05-04 13:01 | 22.62599 | 85.28342 | 36864 ft | 520 kts | 77° |
| 2026-05-04 13:02 | 22.64218 | 85.35939 | 36865 ft | 521 kts | 77° |
| 2026-05-04 13:02 | 22.65859 | 85.43661 | 36875 ft | 521 kts | 77° |
| 2026-05-04 13:03 | 22.67481 | 85.51312 | 36889 ft | 521 kts | 77° |
| 2026-05-04 13:03 | 22.69086 | 85.58899 | 36869 ft | 520 kts | 77° |
| 2026-05-04 13:04 | 22.70697 | 85.66538 | 36871 ft | 520 kts | 77° |
| 2026-05-04 13:04 | 22.72306 | 85.74183 | 36870 ft | 520 kts | 77° |
| 2026-05-04 13:05 | 22.73905 | 85.81799 | 36852 ft | 520 kts | 77° |
| 2026-05-04 13:05 | 22.75513 | 85.89479 | 36825 ft | 520 kts | 77° |
| 2026-05-04 13:06 | 22.77098 | 85.97069 | 36801 ft | 521 kts | 77° |
| 2026-05-04 13:06 | 22.78694 | 86.04729 | 36780 ft | 521 kts | 77° |
| 2026-05-04 13:07 | 22.80257 | 86.12250 | 36775 ft | 504 kts | 78° |
| 2026-05-04 13:07 | 22.81105 | 86.19746 | 36774 ft | 503 kts | 91° |
| 2026-05-04 13:08 | 22.80783 | 86.27309 | 36776 ft | 501 kts | 95° |
| 2026-05-04 13:08 | 22.80382 | 86.34830 | 36790 ft | 501 kts | 95° |
| 2026-05-04 13:09 | 22.79977 | 86.42361 | 36802 ft | 500 kts | 95° |
| 2026-05-04 13:09 | 22.79566 | 86.49884 | 36813 ft | 500 kts | 95° |
| 2026-05-04 13:10 | 22.79153 | 86.57359 | 36827 ft | 500 kts | 95° |
| 2026-05-04 13:10 | 22.78734 | 86.64893 | 36836 ft | 500 kts | 95° |
| 2026-05-04 13:11 | 22.78312 | 86.72403 | 36777 ft | 498 kts | 95° |
| 2026-05-04 13:11 | 22.78101 | 86.76150 | 36435 ft | 494 kts | 95° |
| 2026-05-04 13:11 | 22.77890 | 86.79861 | 35881 ft | 491 kts | 96° |
| 2026-05-04 13:11 | 22.77680 | 86.83553 | 35315 ft | 490 kts | 96° |
| 2026-05-04 13:12 | 22.77474 | 86.87164 | 34846 ft | 487 kts | 96° |
| 2026-05-04 13:12 | 22.77264 | 86.90819 | 34390 ft | 484 kts | 96° |
| 2026-05-04 13:12 | 22.77054 | 86.94445 | 33944 ft | 482 kts | 96° |
| 2026-05-04 13:12 | 22.76845 | 86.98057 | 33485 ft | 478 kts | 96° |
| 2026-05-04 13:13 | 22.76638 | 87.01625 | 33310 ft | 467 kts | 96° |
| 2026-05-04 13:13 | 22.76437 | 87.05099 | 33190 ft | 455 kts | 96° |
| 2026-05-04 13:13 | 22.76240 | 87.08476 | 33070 ft | 443 kts | 96° |
| 2026-05-04 13:13 | 22.76047 | 87.11768 | 32877 ft | 432 kts | 96° |
| 2026-05-04 13:14 | 22.75857 | 87.14983 | 32676 ft | 422 kts | 96° |
| 2026-05-04 13:14 | 22.75672 | 87.18113 | 32472 ft | 411 kts | 96° |
| 2026-05-04 13:14 | 22.75490 | 87.21170 | 32215 ft | 403 kts | 96° |
| 2026-05-04 13:14 | 22.75308 | 87.24202 | 31704 ft | 402 kts | 96° |
| 2026-05-04 13:15 | 22.75128 | 87.27179 | 31174 ft | 403 kts | 96° |
| 2026-05-04 13:15 | 22.74944 | 87.30225 | 30634 ft | 404 kts | 96° |
| 2026-05-04 13:15 | 22.74760 | 87.33265 | 30120 ft | 404 kts | 96° |
| 2026-05-04 13:15 | 22.74577 | 87.36291 | 29556 ft | 405 kts | 96° |
| 2026-05-04 13:16 | 22.74394 | 87.39323 | 28938 ft | 402 kts | 96° |
| 2026-05-04 13:16 | 22.74211 | 87.42341 | 28343 ft | 400 kts | 96° |
| 2026-05-04 13:16 | 22.74026 | 87.45359 | 27539 ft | 403 kts | 96° |
| 2026-05-04 13:16 | 22.73837 | 87.48429 | 26490 ft | 414 kts | 96° |
| 2026-05-04 13:17 | 22.73642 | 87.51584 | 25395 ft | 427 kts | 95° |
| 2026-05-04 13:17 | 22.73441 | 87.54839 | 24332 ft | 437 kts | 95° |
| 2026-05-04 13:17 | 22.73237 | 87.58145 | 23285 ft | 445 kts | 95° |
| 2026-05-04 13:17 | 22.73029 | 87.61520 | 22097 ft | 451 kts | 95° |
| 2026-05-04 13:18 | 22.72819 | 87.64915 | 21246 ft | 449 kts | 95° |
| 2026-05-04 13:18 | 22.72611 | 87.68264 | 20514 ft | 443 kts | 95° |
| 2026-05-04 13:18 | 22.72404 | 87.71577 | 19804 ft | 437 kts | 95° |
| 2026-05-04 13:18 | 22.72200 | 87.74834 | 19098 ft | 431 kts | 95° |
| 2026-05-04 13:19 | 22.71997 | 87.78060 | 18397 ft | 426 kts | 94° |
| 2026-05-04 13:19 | 22.71798 | 87.81204 | 17652 ft | 421 kts | 94° |
| 2026-05-04 13:19 | 22.71599 | 87.84345 | 16910 ft | 415 kts | 94° |
| 2026-05-04 13:19 | 22.71402 | 87.87444 | 16171 ft | 409 kts | 94° |
| 2026-05-04 13:20 | 22.71207 | 87.90501 | 15451 ft | 404 kts | 94° |
| 2026-05-04 13:20 | 22.71014 | 87.93509 | 14754 ft | 398 kts | 94° |
| 2026-05-04 13:20 | 22.70823 | 87.96488 | 14076 ft | 393 kts | 94° |
| 2026-05-04 13:20 | 22.70634 | 87.99427 | 13350 ft | 389 kts | 94° |
| 2026-05-04 13:21 | 22.70447 | 88.02327 | 12599 ft | 384 kts | 94° |
| 2026-05-04 13:21 | 22.70261 | 88.05200 | 11873 ft | 380 kts | 94° |
| 2026-05-04 13:21 | 22.70076 | 88.08043 | 11170 ft | 375 kts | 94° |
| 2026-05-04 13:21 | 22.69894 | 88.10841 | 10485 ft | 371 kts | 94° |
| 2026-05-04 13:22 | 22.69715 | 88.13591 | 9798 ft | 368 kts | 94° |
| 2026-05-04 13:22 | 22.69537 | 88.16333 | 9101 ft | 363 kts | 94° |
| 2026-05-04 13:22 | 22.69239 | 88.19039 | 8406 ft | 358 kts | 105° |
| 2026-05-04 13:22 | 22.68178 | 88.21436 | 7705 ft | 354 kts | 127° |
| 2026-05-04 13:23 | 22.66378 | 88.23198 | 7052 ft | 349 kts | 150° |
| 2026-05-04 13:23 | 22.64116 | 88.24055 | 6414 ft | 345 kts | 173° |
| 2026-05-04 13:23 | 22.61763 | 88.23836 | 5993 ft | 334 kts | 198° |
| 2026-05-04 13:23 | 22.59855 | 88.22595 | 5879 ft | 312 kts | 225° |
| 2026-05-04 13:24 | 22.58784 | 88.20668 | 5719 ft | 292 kts | 255° |
| 2026-05-04 13:24 | 22.58779 | 88.18553 | 5546 ft | 274 kts | 281° |
| 2026-05-04 13:24 | 22.58887 | 88.16573 | 5381 ft | 255 kts | 258° |
| 2026-05-04 13:25 | 22.56917 | 88.13986 | 5109 ft | 214 kts | 195° |
| 2026-05-04 13:25 | 22.55516 | 88.13751 | 4995 ft | 197 kts | 179° |
| 2026-05-04 13:25 | 22.54200 | 88.13874 | 4888 ft | 183 kts | 167° |
| 2026-05-04 13:25 | 22.53019 | 88.14249 | 4680 ft | 174 kts | 156° |
| 2026-05-04 13:26 | 22.51973 | 88.14885 | 4296 ft | 171 kts | 142° |
| 2026-05-04 13:26 | 22.51134 | 88.15767 | 3901 ft | 170 kts | 127° |
| 2026-05-04 13:26 | 22.50566 | 88.16837 | 3696 ft | 160 kts | 112° |
| 2026-05-04 13:26 | 22.50282 | 88.17989 | 3383 ft | 158 kts | 101° |
| 2026-05-04 13:27 | 22.50094 | 88.19170 | 3153 ft | 160 kts | 102° |
| 2026-05-04 13:27 | 22.49890 | 88.20342 | 2903 ft | 156 kts | 102° |
| 2026-05-04 13:27 | 22.49684 | 88.21499 | 2665 ft | 158 kts | 103° |
| 2026-05-04 13:27 | 22.49480 | 88.22657 | 2460 ft | 154 kts | 104° |
| 2026-05-04 13:28 | 22.49277 | 88.23808 | 2338 ft | 157 kts | 103° |
| 2026-05-04 13:28 | 22.49077 | 88.24950 | 2224 ft | 155 kts | 104° |
| 2026-05-04 13:28 | 22.48875 | 88.26100 | 2099 ft | 157 kts | 103° |
| 2026-05-04 13:28 | 22.48676 | 88.27252 | 1977 ft | 155 kts | 104° |
| 2026-05-04 13:29 | 22.48475 | 88.28403 | 1865 ft | 154 kts | 104° |
| 2026-05-04 13:29 | 22.48274 | 88.29544 | 1855 ft | 155 kts | 103° |
| 2026-05-04 13:29 | 22.48074 | 88.30689 | 1862 ft | 157 kts | 104° |
| 2026-05-04 13:29 | 22.47872 | 88.31836 | 1849 ft | 153 kts | 104° |
| 2026-05-04 13:30 | 22.47671 | 88.32983 | 1847 ft | 154 kts | 103° |
| 2026-05-04 13:30 | 22.47473 | 88.34117 | 1856 ft | 155 kts | 104° |
| 2026-05-04 13:30 | 22.47276 | 88.35246 | 1862 ft | 155 kts | 104° |
| 2026-05-04 13:30 | 22.47078 | 88.36391 | 1845 ft | 153 kts | 104° |
| 2026-05-04 13:31 | 22.46879 | 88.37532 | 1845 ft | 154 kts | 104° |
| 2026-05-04 13:31 | 22.46677 | 88.38674 | 1852 ft | 155 kts | 103° |
| 2026-05-04 13:31 | 22.46488 | 88.39776 | 1824 ft | 146 kts | 104° |
| 2026-05-04 13:31 | 22.46406 | 88.40888 | 1837 ft | 151 kts | 80° |
| 2026-05-04 13:32 | 22.46940 | 88.41885 | 1856 ft | 161 kts | 43° |
| 2026-05-04 13:32 | 22.47926 | 88.42461 | 1856 ft | 164 kts | 19° |
| 2026-05-04 13:32 | 22.49043 | 88.42728 | 1864 ft | 165 kts | 10° |
| 2026-05-04 13:32 | 22.50183 | 88.42885 | 1844 ft | 165 kts | 8° |
| 2026-05-04 13:33 | 22.51315 | 88.43023 | 1856 ft | 165 kts | 8° |
| 2026-05-04 13:33 | 22.52530 | 88.43170 | 2248 ft | 168 kts | 8° |
| 2026-05-04 13:33 | 22.53546 | 88.43263 | 3619 ft | 140 kts | 6° |
| 2026-05-04 13:33 | 22.54637 | 88.43320 | 3114 ft | 205 kts | 2° |
| 2026-05-04 13:34 | 22.56049 | 88.43298 | 4157 ft | 202 kts | 358° |
| 2026-05-04 13:34 | 22.57777 | 88.43319 | 3487 ft | 297 kts | 8° |
| 2026-05-04 13:34 | 22.60001 | 88.43950 | 3106 ft | 354 kts | 23° |
| 2026-05-04 13:34 | 22.62309 | 88.44882 | 4146 ft | 362 kts | 19° |
| 2026-05-04 13:35 | 22.64674 | 88.45689 | 4423 ft | 349 kts | 16° |
| 2026-05-04 13:35 | 22.69068 | 88.46982 | 4707 ft | 302 kts | 13° |
| 2026-05-04 13:35 | 22.71163 | 88.47447 | 4051 ft | 306 kts | 6° |
| 2026-05-04 13:36 | 22.73264 | 88.47398 | 4141 ft | 312 kts | 350° |
| 2026-05-04 13:36 | 22.74690 | 88.47034 | 4149 ft | 318 kts | 341° |
| 2026-05-04 13:36 | 22.77278 | 88.45981 | 4149 ft | 276 kts | 345° |
| 2026-05-04 13:36 | 22.78495 | 88.45774 | 4145 ft | 248 kts | 356° |
| 2026-05-04 13:37 | 22.80545 | 88.46098 | 4144 ft | 207 kts | 20° |
| 2026-05-04 13:37 | 22.81419 | 88.46438 | 4140 ft | 189 kts | 17° |
| 2026-05-04 13:37 | 22.82625 | 88.46808 | 4153 ft | 184 kts | 10° |
| 2026-05-04 13:37 | 22.83887 | 88.47067 | 4149 ft | 181 kts | 9° |
| 2026-05-04 13:38 | 22.85113 | 88.47312 | 4147 ft | 181 kts | 9° |
| 2026-05-04 13:38 | 22.86359 | 88.47561 | 4146 ft | 182 kts | 9° |
| 2026-05-04 13:38 | 22.87588 | 88.47876 | 4142 ft | 182 kts | 25° |
| 2026-05-04 13:38 | 22.88466 | 88.48828 | 4153 ft | 184 kts | 66° |
| 2026-05-04 13:39 | 22.88574 | 88.50177 | 4146 ft | 183 kts | 107° |
| 2026-05-04 13:39 | 22.87855 | 88.51274 | 4152 ft | 182 kts | 147° |
| 2026-05-04 13:39 | 22.86747 | 88.51959 | 4145 ft | 182 kts | 152° |
| 2026-05-04 13:39 | 22.85657 | 88.52585 | 4005 ft | 178 kts | 153° |
| 2026-05-04 13:40 | 22.84531 | 88.53195 | 3714 ft | 182 kts | 163° |
| 2026-05-04 13:40 | 22.83305 | 88.53174 | 3339 ft | 176 kts | 198° |
| 2026-05-04 13:40 | 22.82107 | 88.52848 | 2952 ft | 179 kts | 183° |
| 2026-05-04 13:40 | 22.80866 | 88.52845 | 2590 ft | 177 kts | 180° |
| 2026-05-04 13:41 | 22.79632 | 88.52867 | 2252 ft | 175 kts | 180° |
| 2026-05-04 13:41 | 22.78424 | 88.52890 | 2151 ft | 176 kts | 180° |
| 2026-05-04 13:41 | 22.77197 | 88.52912 | 2148 ft | 176 kts | 180° |
| 2026-05-04 13:42 | 22.74766 | 88.52959 | 2153 ft | 176 kts | 179° |
| 2026-05-04 13:42 | 22.73527 | 88.52983 | 2148 ft | 177 kts | 179° |
| 2026-05-04 13:42 | 22.72185 | 88.53008 | 2129 ft | 205 kts | 179° |
| 2026-05-04 13:42 | 22.70751 | 88.53034 | 2155 ft | 207 kts | 180° |
| 2026-05-04 13:43 | 22.69298 | 88.53058 | 2141 ft | 207 kts | 180° |
| 2026-05-04 13:43 | 22.67869 | 88.53042 | 2151 ft | 208 kts | 184° |
| 2026-05-04 13:43 | 22.66432 | 88.52937 | 2145 ft | 206 kts | 185° |
| 2026-05-04 13:43 | 22.64996 | 88.52826 | 2149 ft | 207 kts | 185° |
| 2026-05-04 13:44 | 22.63559 | 88.52714 | 2148 ft | 207 kts | 185° |
| 2026-05-04 13:44 | 22.62120 | 88.52601 | 2142 ft | 207 kts | 185° |
| 2026-05-04 13:44 | 22.60696 | 88.52468 | 2005 ft | 205 kts | 184° |
| 2026-05-04 13:44 | 22.59308 | 88.52318 | 1992 ft | 197 kts | 182° |
| 2026-05-04 13:45 | 22.57920 | 88.52156 | 2003 ft | 203 kts | 184° |
| 2026-05-04 13:45 | 22.56513 | 88.51991 | 1996 ft | 205 kts | 184° |
| 2026-05-04 13:45 | 22.55099 | 88.51839 | 1989 ft | 202 kts | 184° |
| 2026-05-04 13:45 | 22.53703 | 88.51699 | 1998 ft | 201 kts | 183° |
| 2026-05-04 13:46 | 22.52315 | 88.51510 | 1987 ft | 203 kts | 193° |
| 2026-05-04 13:46 | 22.51104 | 88.50748 | 1991 ft | 205 kts | 224° |
| 2026-05-04 13:46 | 22.50396 | 88.49394 | 2006 ft | 213 kts | 252° |
| 2026-05-04 13:46 | 22.50389 | 88.47794 | 1994 ft | 218 kts | 283° |
| 2026-05-04 13:47 | 22.51110 | 88.46359 | 1999 ft | 215 kts | 311° |
| 2026-05-04 13:47 | 22.52158 | 88.45289 | 1982 ft | 199 kts | 320° |
| 2026-05-04 13:47 | 22.53169 | 88.44372 | 1991 ft | 191 kts | 319° |
| 2026-05-04 13:47 | 22.54329 | 88.43755 | 1954 ft | 179 kts | 359° |
| 2026-05-04 13:48 | 22.54385 | 88.43748 | 1951 ft | 178 kts | 1° |
| 2026-05-04 13:48 | 22.55415 | 88.44103 | 1594 ft | 169 kts | 32° |
| 2026-05-04 13:49 | 22.56518 | 88.44118 | 1091 ft | 166 kts | 329° |
| 2026-05-04 13:49 | 22.57453 | 88.43678 | 1007 ft | 132 kts | 359° |
| 2026-05-04 13:49 | 22.58393 | 88.43718 | 331 ft | 142 kts | 7° |
| 2026-05-04 13:49 | 22.59006 | 88.43781 | 21 ft | 0 kts | 205° |